sensor_id;sensor_type;location;lat;lon;timestamp;pressure;altitude;pressure_sealevel;temperature;humidity
39555;BME280;25231;48.746;9.234;2023-02-28T00:00:18;97335.44;;;-3.00;76.10
39555;BME280;25231;48.746;9.234;2023-02-28T00:02:44;97330.59;;;-3.03;76.45
39555;BME280;25231;48.746;9.234;2023-02-28T00:05:12;97330.06;;;-3.07;76.61
39555;BME280;25231;48.746;9.234;2023-02-28T00:07:38;97338.69;;;-3.08;77.29
39555;BME280;25231;48.746;9.234;2023-02-28T00:10:06;97329.78;;;-3.04;76.83
39555;BME280;25231;48.746;9.234;2023-02-28T00:12:33;97325.88;;;-3.08;77.12
39555;BME280;25231;48.746;9.234;2023-02-28T00:14:58;97329.75;;;-3.13;77.82
39555;BME280;25231;48.746;9.234;2023-02-28T00:17:24;97327.84;;;-3.11;77.57
39555;BME280;25231;48.746;9.234;2023-02-28T00:19:50;97324.47;;;-3.12;78.13
39555;BME280;25231;48.746;9.234;2023-02-28T00:22:17;97323.69;;;-3.12;78.28
39555;BME280;25231;48.746;9.234;2023-02-28T00:24:43;97332.16;;;-3.12;77.70
39555;BME280;25231;48.746;9.234;2023-02-28T00:27:09;97325.56;;;-3.14;78.67
39555;BME280;25231;48.746;9.234;2023-02-28T00:29:34;97325.44;;;-3.13;78.48
39555;BME280;25231;48.746;9.234;2023-02-28T00:31:59;97321.25;;;-3.14;78.73
39555;BME280;25231;48.746;9.234;2023-02-28T00:34:25;97322.56;;;-3.19;78.71
39555;BME280;25231;48.746;9.234;2023-02-28T00:36:50;97330.66;;;-3.24;78.64
39555;BME280;25231;48.746;9.234;2023-02-28T00:39:16;97329.84;;;-3.24;79.39
39555;BME280;25231;48.746;9.234;2023-02-28T00:41:41;97327.50;;;-3.27;79.56
39555;BME280;25231;48.746;9.234;2023-02-28T00:44:07;97327.66;;;-3.29;79.39
39555;BME280;25231;48.746;9.234;2023-02-28T00:46:32;97327.13;;;-3.23;79.88
39555;BME280;25231;48.746;9.234;2023-02-28T00:48:58;97326.25;;;-3.33;80.09
39555;BME280;25231;48.746;9.234;2023-02-28T00:51:23;97323.03;;;-3.35;80.36
39555;BME280;25231;48.746;9.234;2023-02-28T00:53:48;97326.66;;;-3.38;80.92
39555;BME280;25231;48.746;9.234;2023-02-28T00:56:14;97326.03;;;-3.30;81.36
39555;BME280;25231;48.746;9.234;2023-02-28T00:58:39;97323.69;;;-3.33;81.04
39555;BME280;25231;48.746;9.234;2023-02-28T01:01:05;97330.03;;;-3.37;81.57
39555;BME280;25231;48.746;9.234;2023-02-28T01:03:30;97323.03;;;-3.35;81.83
39555;BME280;25231;48.746;9.234;2023-02-28T01:05:56;97331.22;;;-3.41;82.08
39555;BME280;25231;48.746;9.234;2023-02-28T01:08:21;97324.47;;;-3.42;82.38
39555;BME280;25231;48.746;9.234;2023-02-28T01:10:47;97324.59;;;-3.44;82.64
39555;BME280;25231;48.746;9.234;2023-02-28T01:13:13;97313.91;;;-3.49;83.31
39555;BME280;25231;48.746;9.234;2023-02-28T01:15:42;97318.53;;;-3.43;82.77
39555;BME280;25231;48.746;9.234;2023-02-28T01:18:08;97315.13;;;-3.53;84.30
39555;BME280;25231;48.746;9.234;2023-02-28T01:20:36;97316.03;;;-3.54;84.27
39555;BME280;25231;48.746;9.234;2023-02-28T01:23:02;97315.94;;;-3.52;84.64
39555;BME280;25231;48.746;9.234;2023-02-28T01:25:27;97313.59;;;-3.55;84.62
39555;BME280;25231;48.746;9.234;2023-02-28T01:27:53;97324.53;;;-3.53;85.31
39555;BME280;25231;48.746;9.234;2023-02-28T01:30:18;97306.94;;;-3.47;85.39
39555;BME280;25231;48.746;9.234;2023-02-28T01:32:43;97319.03;;;-3.49;85.33
39555;BME280;25231;48.746;9.234;2023-02-28T01:35:09;97310.91;;;-3.54;85.93
39555;BME280;25231;48.746;9.234;2023-02-28T01:37:34;97320.84;;;-3.60;86.68
39555;BME280;25231;48.746;9.234;2023-02-28T01:39:59;97313.16;;;-3.60;87.16
39555;BME280;25231;48.746;9.234;2023-02-28T01:42:25;97317.91;;;-3.56;87.40
39555;BME280;25231;48.746;9.234;2023-02-28T01:44:57;97322.47;;;-3.59;87.76
39555;BME280;25231;48.746;9.234;2023-02-28T01:47:27;97311.53;;;-3.61;88.26
39555;BME280;25231;48.746;9.234;2023-02-28T01:49:54;97312.94;;;-3.57;87.83
39555;BME280;25231;48.746;9.234;2023-02-28T01:52:20;97313.59;;;-3.55;88.11
39555;BME280;25231;48.746;9.234;2023-02-28T01:54:51;97303.78;;;-3.50;87.90
39555;BME280;25231;48.746;9.234;2023-02-28T01:57:19;97300.41;;;-3.51;87.53
39555;BME280;25231;48.746;9.234;2023-02-28T01:59:50;97298.22;;;-3.55;88.31
39555;BME280;25231;48.746;9.234;2023-02-28T02:02:18;97304.59;;;-3.50;88.92
39555;BME280;25231;48.746;9.234;2023-02-28T02:05:05;97298.22;;;-3.55;88.97
39555;BME280;25231;48.746;9.234;2023-02-28T02:07:35;97296.78;;;-3.48;88.79
39555;BME280;25231;48.746;9.234;2023-02-28T02:10:26;97296.41;;;-3.44;89.35
39555;BME280;25231;48.746;9.234;2023-02-28T02:15:34;97285.84;;;-3.50;90.29
39555;BME280;25231;48.746;9.234;2023-02-28T02:18:18;97290.47;;;-3.44;90.27
39555;BME280;25231;48.746;9.234;2023-02-28T02:20:54;97278.47;;;-3.44;89.83
39555;BME280;25231;48.746;9.234;2023-02-28T02:29:34;97278.56;;;-3.55;91.78
39555;BME280;25231;48.746;9.234;2023-02-28T02:37:42;97263.38;;;-3.47;92.32
39555;BME280;25231;48.746;9.234;2023-02-28T02:40:17;97261.63;;;-3.46;91.87
39555;BME280;25231;48.746;9.234;2023-02-28T02:45:36;97267.56;;;-3.46;92.69
39555;BME280;25231;48.746;9.234;2023-02-28T02:48:06;97270.56;;;-3.41;92.61
39555;BME280;25231;48.746;9.234;2023-02-28T02:50:39;97276.72;;;-3.43;92.66
39555;BME280;25231;48.746;9.234;2023-02-28T02:53:06;97268.09;;;-3.42;93.01
39555;BME280;25231;48.746;9.234;2023-02-28T02:55:36;97270.78;;;-3.44;92.81
39555;BME280;25231;48.746;9.234;2023-02-28T02:58:05;97268.81;;;-3.40;94.10
39555;BME280;25231;48.746;9.234;2023-02-28T03:00:37;97276.75;;;-3.33;92.97
39555;BME280;25231;48.746;9.234;2023-02-28T03:03:05;97277.28;;;-3.40;93.23
39555;BME280;25231;48.746;9.234;2023-02-28T03:05:52;97281.47;;;-3.39;94.13
39555;BME280;25231;48.746;9.234;2023-02-28T03:08:17;97274.97;;;-3.43;94.27
39555;BME280;25231;48.746;9.234;2023-02-28T03:10:45;97274.59;;;-3.38;94.74
39555;BME280;25231;48.746;9.234;2023-02-28T03:13:29;97274.72;;;-3.40;94.63
39555;BME280;25231;48.746;9.234;2023-02-28T03:22:19;97280.81;;;-3.41;95.23
39555;BME280;25231;48.746;9.234;2023-02-28T03:25:07;97279.09;;;-3.30;95.65
39555;BME280;25231;48.746;9.234;2023-02-28T03:27:40;97281.53;;;-3.29;95.55
39555;BME280;25231;48.746;9.234;2023-02-28T03:30:27;97279.22;;;-3.32;96.20
39555;BME280;25231;48.746;9.234;2023-02-28T03:33:01;97279.84;;;-3.40;96.33
39555;BME280;25231;48.746;9.234;2023-02-28T03:35:33;97275.81;;;-3.32;96.87
39555;BME280;25231;48.746;9.234;2023-02-28T03:38:05;97275.44;;;-3.28;96.86
39555;BME280;25231;48.746;9.234;2023-02-28T03:40:34;97270.81;;;-3.34;97.83
39555;BME280;25231;48.746;9.234;2023-02-28T03:43:07;97267.03;;;-3.40;97.09
39555;BME280;25231;48.746;9.234;2023-02-28T03:45:37;97268.03;;;-3.31;97.63
39555;BME280;25231;48.746;9.234;2023-02-28T03:48:12;97273.31;;;-3.23;97.75
39555;BME280;25231;48.746;9.234;2023-02-28T03:50:46;97270.31;;;-3.28;98.04
39555;BME280;25231;48.746;9.234;2023-02-28T03:55:42;97272.06;;;-3.28;98.10
39555;BME280;25231;48.746;9.234;2023-02-28T03:58:21;97267.91;;;-3.29;98.44
39555;BME280;25231;48.746;9.234;2023-02-28T04:00:55;97274.09;;;-3.32;98.51
39555;BME280;25231;48.746;9.234;2023-02-28T04:03:22;97272.75;;;-3.26;98.03
39555;BME280;25231;48.746;9.234;2023-02-28T04:05:55;97274.50;;;-3.27;98.60
39555;BME280;25231;48.746;9.234;2023-02-28T04:08:22;97273.09;;;-3.10;98.18
39555;BME280;25231;48.746;9.234;2023-02-28T04:11:07;97277.41;;;-3.11;97.96
39555;BME280;25231;48.746;9.234;2023-02-28T04:13:33;97279.66;;;-3.17;98.11
39555;BME280;25231;48.746;9.234;2023-02-28T04:15:59;97289.16;;;-3.08;97.75
39555;BME280;25231;48.746;9.234;2023-02-28T04:18:24;97286.84;;;-3.11;97.98
39555;BME280;25231;48.746;9.234;2023-02-28T04:20:49;97279.13;;;-3.21;97.84
39555;BME280;25231;48.746;9.234;2023-02-28T04:23:15;97279.16;;;-3.11;98.32
39555;BME280;25231;48.746;9.234;2023-02-28T04:25:40;97272.69;;;-3.06;97.83
39555;BME280;25231;48.746;9.234;2023-02-28T04:28:06;97280.66;;;-3.09;97.69
39555;BME280;25231;48.746;9.234;2023-02-28T04:30:32;97277.16;;;-3.08;98.40
39555;BME280;25231;48.746;9.234;2023-02-28T04:32:58;97276.97;;;-3.16;98.26
39555;BME280;25231;48.746;9.234;2023-02-28T04:35:23;97278.88;;;-3.18;99.00
39555;BME280;25231;48.746;9.234;2023-02-28T04:37:48;97273.22;;;-3.12;98.77
39555;BME280;25231;48.746;9.234;2023-02-28T04:40:14;97277.25;;;-3.19;99.07
39555;BME280;25231;48.746;9.234;2023-02-28T04:42:39;97270.09;;;-3.15;98.64
39555;BME280;25231;48.746;9.234;2023-02-28T04:45:05;97277.66;;;-3.14;98.88
39555;BME280;25231;48.746;9.234;2023-02-28T04:47:30;97272.25;;;-3.20;99.30
39555;BME280;25231;48.746;9.234;2023-02-28T04:49:56;97276.59;;;-3.11;99.38
39555;BME280;25231;48.746;9.234;2023-02-28T04:52:21;97275.66;;;-3.10;99.64
39555;BME280;25231;48.746;9.234;2023-02-28T04:54:47;97278.88;;;-3.18;99.53
39555;BME280;25231;48.746;9.234;2023-02-28T04:57:12;97271.59;;;-3.13;99.69
39555;BME280;25231;48.746;9.234;2023-02-28T04:59:38;97287.22;;;-3.16;99.93
39555;BME280;25231;48.746;9.234;2023-02-28T05:02:03;97281.47;;;-3.08;99.80
39555;BME280;25231;48.746;9.234;2023-02-28T05:04:35;97281.06;;;-3.13;99.75
39555;BME280;25231;48.746;9.234;2023-02-28T05:07:01;97279.56;;;-3.06;100.00
39555;BME280;25231;48.746;9.234;2023-02-28T05:09:26;97277.56;;;-3.12;100.00
39555;BME280;25231;48.746;9.234;2023-02-28T05:11:53;97281.47;;;-3.08;100.00
39555;BME280;25231;48.746;9.234;2023-02-28T05:14:18;97279.97;;;-3.11;100.00
39555;BME280;25231;48.746;9.234;2023-02-28T05:16:43;97272.84;;;-3.07;100.00
39555;BME280;25231;48.746;9.234;2023-02-28T05:19:09;97263.34;;;-3.16;100.00
39555;BME280;25231;48.746;9.234;2023-02-28T05:21:49;97273.00;;;-2.99;100.00
39555;BME280;25231;48.746;9.234;2023-02-28T05:24:15;97283.25;;;-2.99;100.00
39555;BME280;25231;48.746;9.234;2023-02-28T05:26:47;97282.19;;;-2.97;100.00
39555;BME280;25231;48.746;9.234;2023-02-28T05:29:13;97291.44;;;-3.05;100.00
39555;BME280;25231;48.746;9.234;2023-02-28T05:31:38;97279.88;;;-3.00;100.00
39555;BME280;25231;48.746;9.234;2023-02-28T05:34:04;97283.53;;;-3.02;100.00
39555;BME280;25231;48.746;9.234;2023-02-28T05:36:29;97279.56;;;-3.06;100.00
39555;BME280;25231;48.746;9.234;2023-02-28T05:38:55;97284.19;;;-3.00;100.00
39555;BME280;25231;48.746;9.234;2023-02-28T05:41:20;97283.75;;;-3.05;100.00
39555;BME280;25231;48.746;9.234;2023-02-28T05:43:46;97287.13;;;-3.05;100.00
39555;BME280;25231;48.746;9.234;2023-02-28T05:46:13;97290.41;;;-3.03;100.00
39555;BME280;25231;48.746;9.234;2023-02-28T05:48:39;97290.13;;;-3.00;100.00
39555;BME280;25231;48.746;9.234;2023-02-28T05:51:06;97291.50;;;-2.96;100.00
39555;BME280;25231;48.746;9.234;2023-02-28T05:53:32;97294.59;;;-3.02;100.00
39555;BME280;25231;48.746;9.234;2023-02-28T05:55:57;97297.06;;;-2.90;100.00
39555;BME280;25231;48.746;9.234;2023-02-28T05:58:23;97294.06;;;-2.96;100.00
39555;BME280;25231;48.746;9.234;2023-02-28T06:00:50;97299.03;;;-2.94;100.00
39555;BME280;25231;48.746;9.234;2023-02-28T06:03:16;97295.13;;;-2.98;100.00
39555;BME280;25231;48.746;9.234;2023-02-28T06:05:41;97297.81;;;-3.00;100.00
39555;BME280;25231;48.746;9.234;2023-02-28T06:08:06;97297.16;;;-2.92;100.00
39555;BME280;25231;48.746;9.234;2023-02-28T06:10:33;97298.38;;;-2.96;100.00
39555;BME280;25231;48.746;9.234;2023-02-28T06:13:05;97297.16;;;-2.92;100.00
39555;BME280;25231;48.746;9.234;2023-02-28T06:15:31;97302.19;;;-2.90;100.00
39555;BME280;25231;48.746;9.234;2023-02-28T06:17:58;97301.31;;;-3.01;100.00
39555;BME280;25231;48.746;9.234;2023-02-28T06:20:25;97301.75;;;-2.96;100.00
39555;BME280;25231;48.746;9.234;2023-02-28T06:22:54;97301.78;;;-2.86;100.00
39555;BME280;25231;48.746;9.234;2023-02-28T06:25:21;97302.44;;;-2.84;100.00
39555;BME280;25231;48.746;9.234;2023-02-28T06:27:46;97306.25;;;-2.78;100.00
39555;BME280;25231;48.746;9.234;2023-02-28T06:30:13;97314.22;;;-2.81;100.00
39555;BME280;25231;48.746;9.234;2023-02-28T06:32:38;97319.34;;;-2.72;100.00
39555;BME280;25231;48.746;9.234;2023-02-28T06:35:04;97313.28;;;-2.80;100.00
39555;BME280;25231;48.746;9.234;2023-02-28T06:37:31;97316.50;;;-2.78;100.00
39555;BME280;25231;48.746;9.234;2023-02-28T06:39:57;97330.56;;;-2.73;99.89
39555;BME280;25231;48.746;9.234;2023-02-28T06:42:24;97328.16;;;-2.65;98.74
39555;BME280;25231;48.746;9.234;2023-02-28T06:44:56;97329.91;;;-2.65;98.02
39555;BME280;25231;48.746;9.234;2023-02-28T06:47:21;97325.06;;;-2.59;97.85
39555;BME280;25231;48.746;9.234;2023-02-28T06:49:47;97326.13;;;-2.71;98.54
39555;BME280;25231;48.746;9.234;2023-02-28T06:52:13;97329.66;;;-2.62;98.14
39555;BME280;25231;48.746;9.234;2023-02-28T06:54:39;97334.41;;;-2.58;97.46
39555;BME280;25231;48.746;9.234;2023-02-28T06:57:04;97326.66;;;-2.67;97.69
39555;BME280;25231;48.746;9.234;2023-02-28T06:59:30;97324.69;;;-2.54;97.04
39555;BME280;25231;48.746;9.234;2023-02-28T07:01:55;97332.53;;;-2.36;96.31
39555;BME280;25231;48.746;9.234;2023-02-28T07:04:21;97334.69;;;-2.41;95.92
39555;BME280;25231;48.746;9.234;2023-02-28T07:06:47;97336.16;;;-2.58;96.68
39555;BME280;25231;48.746;9.234;2023-02-28T07:09:12;97340.19;;;-2.56;96.32
39555;BME280;25231;48.746;9.234;2023-02-28T07:11:39;97336.97;;;-2.58;96.54
39555;BME280;25231;48.746;9.234;2023-02-28T07:14:04;97339.38;;;-2.56;96.46
39555;BME280;25231;48.746;9.234;2023-02-28T07:16:30;97348.16;;;-2.59;96.85
39555;BME280;25231;48.746;9.234;2023-02-28T07:18:55;97344.16;;;-0.90;100.00
39555;BME280;25231;48.746;9.234;2023-02-28T07:21:21;97356.81;;;-1.15;93.31
39555;BME280;25231;48.746;9.234;2023-02-28T07:23:47;97347.72;;;-2.04;94.55
39555;BME280;25231;48.746;9.234;2023-02-28T07:26:15;97350.00;;;-2.30;96.41
39555;BME280;25231;48.746;9.234;2023-02-28T07:28:42;97342.56;;;-2.24;95.57
39555;BME280;25231;48.746;9.234;2023-02-28T07:31:09;97346.97;;;-2.45;96.68
39555;BME280;25231;48.746;9.234;2023-02-28T07:33:35;97354.66;;;-2.45;96.79
39555;BME280;25231;48.746;9.234;2023-02-28T07:36:07;97341.06;;;-2.36;95.47
39555;BME280;25231;48.746;9.234;2023-02-28T07:38:36;97346.72;;;-2.32;94.33
39555;BME280;25231;48.746;9.234;2023-02-28T07:41:03;97352.25;;;-2.37;94.66
39555;BME280;25231;48.746;9.234;2023-02-28T07:43:32;97355.53;;;-2.35;94.62
39555;BME280;25231;48.746;9.234;2023-02-28T07:46:05;97349.41;;;-2.43;95.00
39555;BME280;25231;48.746;9.234;2023-02-28T07:48:31;97346.59;;;-2.40;94.48
39555;BME280;25231;48.746;9.234;2023-02-28T07:50:57;97350.38;;;-2.35;94.17
39555;BME280;25231;48.746;9.234;2023-02-28T07:53:23;97351.47;;;-2.28;93.55
39555;BME280;25231;48.746;9.234;2023-02-28T07:55:49;97354.72;;;-2.26;93.92
39555;BME280;25231;48.746;9.234;2023-02-28T07:58:14;97363.53;;;-2.19;93.43
39555;BME280;25231;48.746;9.234;2023-02-28T08:00:39;97361.88;;;-2.20;93.09
39555;BME280;25231;48.746;9.234;2023-02-28T08:03:05;97360.00;;;-2.18;93.32
39555;BME280;25231;48.746;9.234;2023-02-28T08:05:30;97363.38;;;-2.17;93.60
39555;BME280;25231;48.746;9.234;2023-02-28T08:07:56;97352.84;;;-2.04;93.54
39555;BME280;25231;48.746;9.234;2023-02-28T08:10:21;97365.81;;;-2.06;93.57
39555;BME280;25231;48.746;9.234;2023-02-28T08:12:46;97366.25;;;-1.91;93.03
39555;BME280;25231;48.746;9.234;2023-02-28T08:15:12;97373.66;;;-1.88;92.24
39555;BME280;25231;48.746;9.234;2023-02-28T08:17:37;97371.09;;;-2.07;92.42
39555;BME280;25231;48.746;9.234;2023-02-28T08:20:03;97371.25;;;-1.90;91.40
39555;BME280;25231;48.746;9.234;2023-02-28T08:22:29;97368.25;;;-2.14;93.24
39555;BME280;25231;48.746;9.234;2023-02-28T08:24:54;97377.06;;;-2.07;92.35
39555;BME280;25231;48.746;9.234;2023-02-28T08:27:20;97369.31;;;-2.26;92.69
39555;BME280;25231;48.746;9.234;2023-02-28T08:29:45;97371.09;;;-1.98;92.06
39555;BME280;25231;48.746;9.234;2023-02-28T08:32:10;97367.03;;;-2.00;92.11
39555;BME280;25231;48.746;9.234;2023-02-28T08:34:39;97367.84;;;-2.00;92.54
39555;BME280;25231;48.746;9.234;2023-02-28T08:37:04;97373.53;;;-1.96;91.67
39555;BME280;25231;48.746;9.234;2023-02-28T08:39:29;97375.53;;;-2.00;91.80
39555;BME280;25231;48.746;9.234;2023-02-28T08:41:54;97371.22;;;-1.99;92.43
39555;BME280;25231;48.746;9.234;2023-02-28T08:44:20;97367.84;;;-2.10;91.75
39555;BME280;25231;48.746;9.234;2023-02-28T08:46:45;97365.03;;;-1.97;92.52
39555;BME280;25231;48.746;9.234;2023-02-28T08:49:11;97365.69;;;-1.95;91.44
39555;BME280;25231;48.746;9.234;2023-02-28T08:51:38;97381.00;;;-1.74;91.14
39555;BME280;25231;48.746;9.234;2023-02-28T08:54:03;97375.97;;;-1.76;90.82
39555;BME280;25231;48.746;9.234;2023-02-28T08:56:29;97378.53;;;-1.76;90.95
39555;BME280;25231;48.746;9.234;2023-02-28T08:58:56;97384.38;;;-1.64;90.06
39555;BME280;25231;48.746;9.234;2023-02-28T09:01:27;97383.41;;;-1.63;90.27
39555;BME280;25231;48.746;9.234;2023-02-28T09:03:54;97389.22;;;-1.80;90.13
39555;BME280;25231;48.746;9.234;2023-02-28T09:06:21;97379.50;;;-1.86;91.06
39555;BME280;25231;48.746;9.234;2023-02-28T09:08:47;97387.47;;;-1.80;89.82
39555;BME280;25231;48.746;9.234;2023-02-28T09:11:13;97387.19;;;-1.77;90.09
39555;BME280;25231;48.746;9.234;2023-02-28T09:13:39;97393.94;;;-1.66;89.28
39555;BME280;25231;48.746;9.234;2023-02-28T09:16:07;97383.81;;;-1.87;89.95
39555;BME280;25231;48.746;9.234;2023-02-28T09:18:36;97398.00;;;-1.83;89.70
39555;BME280;25231;48.746;9.234;2023-02-28T09:21:07;97388.97;;;-1.67;89.40
39555;BME280;25231;48.746;9.234;2023-02-28T09:23:34;97388.97;;;-1.67;89.58
39555;BME280;25231;48.746;9.234;2023-02-28T09:25:59;97395.84;;;-1.49;89.18
39555;BME280;25231;48.746;9.234;2023-02-28T09:28:25;97392.88;;;-1.35;87.37
39555;BME280;25231;48.746;9.234;2023-02-28T09:30:52;97396.94;;;-1.42;88.12
39555;BME280;25231;48.746;9.234;2023-02-28T09:33:19;97395.97;;;-1.31;88.32
39555;BME280;25231;48.746;9.234;2023-02-28T09:35:47;97399.88;;;-1.17;87.04
39555;BME280;25231;48.746;9.234;2023-02-28T09:38:12;97400.69;;;-1.27;86.80
39555;BME280;25231;48.746;9.234;2023-02-28T09:40:50;97394.09;;;-1.29;85.33
39555;BME280;25231;48.746;9.234;2023-02-28T09:43:19;97403.00;;;-1.43;85.99
39555;BME280;25231;48.746;9.234;2023-02-28T09:45:59;97405.44;;;-1.32;86.57
39555;BME280;25231;48.746;9.234;2023-02-28T09:48:33;97410.56;;;-1.32;85.78
39555;BME280;25231;48.746;9.234;2023-02-28T09:51:12;97402.06;;;-1.42;86.57
39555;BME280;25231;48.746;9.234;2023-02-28T09:53:39;97406.34;;;-1.04;84.90
39555;BME280;25231;48.746;9.234;2023-02-28T09:56:10;97414.03;;;-0.94;84.70
39555;BME280;25231;48.746;9.234;2023-02-28T09:58:46;97414.41;;;-0.89;84.25
39555;BME280;25231;48.746;9.234;2023-02-28T10:01:21;97407.28;;;-1.05;84.01
39555;BME280;25231;48.746;9.234;2023-02-28T10:04:08;97410.13;;;-0.98;83.38
39555;BME280;25231;48.746;9.234;2023-02-28T10:06:41;97414.13;;;-0.76;82.82
39555;BME280;25231;48.746;9.234;2023-02-28T10:09:19;97407.97;;;-0.66;82.73
39555;BME280;25231;48.746;9.234;2023-02-28T10:11:48;97415.56;;;-0.64;82.40
39555;BME280;25231;48.746;9.234;2023-02-28T10:14:18;97411.44;;;-0.48;81.19
39555;BME280;25231;48.746;9.234;2023-02-28T10:16:48;97408.63;;;-0.54;80.37
39555;BME280;25231;48.746;9.234;2023-02-28T10:19:28;97416.16;;;-0.43;81.04
39555;BME280;25231;48.746;9.234;2023-02-28T10:22:01;97422.69;;;-0.49;80.18
39555;BME280;25231;48.746;9.234;2023-02-28T10:24:39;97420.34;;;-0.42;80.56
39555;BME280;25231;48.746;9.234;2023-02-28T10:27:26;97420.25;;;-0.50;80.68
39555;BME280;25231;48.746;9.234;2023-02-28T10:29:55;97430.09;;;-0.36;80.52
39555;BME280;25231;48.746;9.234;2023-02-28T10:32:24;97425.31;;;-0.31;79.88
39555;BME280;25231;48.746;9.234;2023-02-28T10:34:53;97424.59;;;0.04;78.24
39555;BME280;25231;48.746;9.234;2023-02-28T10:37:22;97419.69;;;-0.17;78.20
39555;BME280;25231;48.746;9.234;2023-02-28T10:39:47;97427.50;;;-0.09;78.18
39555;BME280;25231;48.746;9.234;2023-02-28T10:42:22;97422.78;;;-0.40;78.33
39555;BME280;25231;48.746;9.234;2023-02-28T10:45:05;97420.28;;;-0.23;78.38
39555;BME280;25231;48.746;9.234;2023-02-28T10:47:33;97434.28;;;-0.08;76.56
39555;BME280;25231;48.746;9.234;2023-02-28T10:49:59;97420.69;;;0.00;77.50
39555;BME280;25231;48.746;9.234;2023-02-28T10:52:54;97417.03;;;0.38;75.52
39555;BME280;25231;48.746;9.234;2023-02-28T10:55:23;97420.34;;;0.48;74.77
39555;BME280;25231;48.746;9.234;2023-02-28T10:57:50;97411.28;;;0.26;74.90
39555;BME280;25231;48.746;9.234;2023-02-28T11:00:19;97418.72;;;0.29;74.67
39555;BME280;25231;48.746;9.234;2023-02-28T11:02:45;97423.06;;;0.47;74.38
39555;BME280;25231;48.746;9.234;2023-02-28T11:05:35;97424.72;;;0.03;74.96
39555;BME280;25231;48.746;9.234;2023-02-28T11:08:14;97421.97;;;0.31;75.39
39555;BME280;25231;48.746;9.234;2023-02-28T11:10:46;97425.66;;;0.11;75.33
39555;BME280;25231;48.746;9.234;2023-02-28T11:13:20;97423.66;;;0.40;75.43
39555;BME280;25231;48.746;9.234;2023-02-28T11:15:53;97418.47;;;0.23;75.90
39555;BME280;25231;48.746;9.234;2023-02-28T11:18:27;97421.38;;;0.20;76.01
39555;BME280;25231;48.746;9.234;2023-02-28T11:20:55;97421.28;;;0.12;76.50
39555;BME280;25231;48.746;9.234;2023-02-28T11:23:25;97418.28;;;-0.11;76.52
39555;BME280;25231;48.746;9.234;2023-02-28T11:25:54;97414.34;;;0.12;76.22
39555;BME280;25231;48.746;9.234;2023-02-28T11:33:43;97414.16;;;0.59;73.43
39555;BME280;25231;48.746;9.234;2023-02-28T11:36:15;97414.06;;;0.68;73.99
39555;BME280;25231;48.746;9.234;2023-02-28T11:38:42;97405.34;;;1.13;72.97
39555;BME280;25231;48.746;9.234;2023-02-28T11:46:56;97396.06;;;1.62;70.10
39555;BME280;25231;48.746;9.234;2023-02-28T11:57:29;97391.97;;;0.92;69.80
39555;BME280;25231;48.746;9.234;2023-02-28T12:05:34;97395.72;;;1.49;68.66
39555;BME280;25231;48.746;9.234;2023-02-28T12:13:51;97378.03;;;1.28;68.98
39555;BME280;25231;48.746;9.234;2023-02-28T12:16:36;97382.44;;;1.44;68.96
39555;BME280;25231;48.746;9.234;2023-02-28T12:19:15;97381.03;;;1.49;67.77
39555;BME280;25231;48.746;9.234;2023-02-28T12:27:25;97369.13;;;2.23;67.35
39555;BME280;25231;48.746;9.234;2023-02-28T12:30:00;97390.25;;;2.18;65.28
39555;BME280;25231;48.746;9.234;2023-02-28T12:32:31;97394.38;;;1.87;67.04
39555;BME280;25231;48.746;9.234;2023-02-28T12:35:02;97370.03;;;1.89;67.34
39555;BME280;25231;48.746;9.234;2023-02-28T12:37:36;97371.94;;;1.87;67.72
39555;BME280;25231;48.746;9.234;2023-02-28T12:40:19;97373.06;;;1.85;66.95
39555;BME280;25231;48.746;9.234;2023-02-28T12:42:57;97373.03;;;1.77;67.19
39555;BME280;25231;48.746;9.234;2023-02-28T12:45:27;97373.44;;;2.06;67.11
39555;BME280;25231;48.746;9.234;2023-02-28T12:48:06;97368.75;;;2.09;67.14
39555;BME280;25231;48.746;9.234;2023-02-28T12:50:33;97362.13;;;2.07;65.62
39555;BME280;25231;48.746;9.234;2023-02-28T12:53:06;97360.53;;;2.22;65.90
39555;BME280;25231;48.746;9.234;2023-02-28T12:58:40;97357.75;;;2.07;66.11
39555;BME280;25231;48.746;9.234;2023-02-28T13:04:36;97357.44;;;2.02;65.93
39555;BME280;25231;48.746;9.234;2023-02-28T13:09:55;97361.19;;;2.16;65.34
39555;BME280;25231;48.746;9.234;2023-02-28T13:12:21;97359.91;;;2.36;65.74
39555;BME280;25231;48.746;9.234;2023-02-28T13:14:48;97356.34;;;2.37;65.56
39555;BME280;25231;48.746;9.234;2023-02-28T13:17:23;97351.00;;;2.47;65.06
39555;BME280;25231;48.746;9.234;2023-02-28T13:22:37;97343.41;;;2.45;64.14
39555;BME280;25231;48.746;9.234;2023-02-28T13:27:49;97349.72;;;2.59;64.24
39555;BME280;25231;48.746;9.234;2023-02-28T13:33:31;97340.16;;;2.84;63.22
39555;BME280;25231;48.746;9.234;2023-02-28T13:38:42;97334.84;;;2.61;63.21
39555;BME280;25231;48.746;9.234;2023-02-28T13:51:52;97341.28;;;2.89;62.05
39555;BME280;25231;48.746;9.234;2023-02-28T13:54:24;97348.66;;;3.09;61.90
39555;BME280;25231;48.746;9.234;2023-02-28T13:59:31;97353.88;;;3.01;61.38
39555;BME280;25231;48.746;9.234;2023-02-28T14:05:21;97343.53;;;3.01;62.05
39555;BME280;25231;48.746;9.234;2023-02-28T14:07:53;97347.59;;;2.87;62.28
39555;BME280;25231;48.746;9.234;2023-02-28T14:15:43;97338.34;;;3.01;61.17
39555;BME280;25231;48.746;9.234;2023-02-28T14:18:24;97329.88;;;3.15;61.20
39555;BME280;25231;48.746;9.234;2023-02-28T14:20:54;97331.81;;;3.21;61.46
39555;BME280;25231;48.746;9.234;2023-02-28T14:23:43;97339.06;;;3.33;60.96
39555;BME280;25231;48.746;9.234;2023-02-28T14:29:07;97331.31;;;3.25;60.33
39555;BME280;25231;48.746;9.234;2023-02-28T14:31:41;97343.34;;;3.10;60.82
39555;BME280;25231;48.746;9.234;2023-02-28T14:36:53;97339.13;;;3.17;60.60
39555;BME280;25231;48.746;9.234;2023-02-28T14:39:25;97337.00;;;3.21;60.61
39555;BME280;25231;48.746;9.234;2023-02-28T14:41:51;97342.84;;;3.07;61.36
39555;BME280;25231;48.746;9.234;2023-02-28T14:44:23;97340.41;;;3.13;61.56
39555;BME280;25231;48.746;9.234;2023-02-28T14:46:52;97340.59;;;3.12;61.09
39555;BME280;25231;48.746;9.234;2023-02-28T14:49:20;97344.78;;;3.13;61.21
39555;BME280;25231;48.746;9.234;2023-02-28T14:51:49;97344.09;;;3.19;60.56
39555;BME280;25231;48.746;9.234;2023-02-28T14:54:16;97341.41;;;3.04;61.41
39555;BME280;25231;48.746;9.234;2023-02-28T14:56:49;97335.88;;;3.15;61.55
39555;BME280;25231;48.746;9.234;2023-02-28T14:59:32;97343.31;;;3.18;60.99